sensor_id;sensor_type;location;lat;lon;timestamp;pressure;altitude;pressure_sealevel;temperature;humidity
9325;BME280;4701;51.566;6.776;2023-05-11T07:03:38;101160.31;;;12.98;100.00
9325;BME280;4701;51.566;6.776;2023-05-11T07:06:39;101162.78;;;13.05;100.00
9325;BME280;4701;51.566;6.776;2023-05-11T07:09:41;101158.69;;;13.12;100.00
9325;BME280;4701;51.566;6.776;2023-05-11T07:12:43;101159.25;;;13.19;100.00
9325;BME280;4701;51.566;6.776;2023-05-11T07:15:45;101155.13;;;13.27;100.00
9325;BME280;4701;51.566;6.776;2023-05-11T07:18:48;101156.81;;;13.33;100.00
9325;BME280;4701;51.566;6.776;2023-05-11T07:21:50;101159.25;;;13.40;100.00
9325;BME280;4701;51.566;6.776;2023-05-11T07:24:52;101161.97;;;13.45;100.00
9325;BME280;4701;51.566;6.776;2023-05-11T07:27:54;101162.00;;;13.50;100.00
9325;BME280;4701;51.566;6.776;2023-05-11T07:30:56;101155.41;;;13.56;100.00
9325;BME280;4701;51.566;6.776;2023-05-11T07:33:59;101163.91;;;13.59;100.00
9325;BME280;4701;51.566;6.776;2023-05-11T07:37:01;101160.88;;;13.66;100.00
9325;BME280;4701;51.566;6.776;2023-05-11T07:40:04;101152.09;;;13.69;100.00
9325;BME280;4701;51.566;6.776;2023-05-11T07:43:07;101163.84;;;13.75;100.00
9325;BME280;4701;51.566;6.776;2023-05-11T07:46:11;101170.13;;;13.80;100.00
9325;BME280;4701;51.566;6.776;2023-05-11T07:49:14;101164.13;;;13.83;100.00
9325;BME280;4701;51.566;6.776;2023-05-11T07:52:16;101166.31;;;13.86;100.00
9325;BME280;4701;51.566;6.776;2023-05-11T07:55:18;101173.94;;;13.89;100.00
9325;BME280;4701;51.566;6.776;2023-05-11T07:58:24;101165.19;;;13.92;100.00
9325;BME280;4701;51.566;6.776;2023-05-11T08:01:26;101167.34;;;13.95;100.00
9325;BME280;4701;51.566;6.776;2023-05-11T08:04:29;101168.72;;;13.98;100.00
9325;BME280;4701;51.566;6.776;2023-05-11T08:07:31;101159.94;;;14.01;99.97
9325;BME280;4701;51.566;6.776;2023-05-11T08:10:35;101164.03;;;14.03;99.68
9325;BME280;4701;51.566;6.776;2023-05-11T08:13:36;101167.03;;;14.07;99.38
9325;BME280;4701;51.566;6.776;2023-05-11T08:16:38;101170.88;;;14.11;99.22
9325;BME280;4701;51.566;6.776;2023-05-11T08:19:41;101167.84;;;14.13;98.38
9325;BME280;4701;51.566;6.776;2023-05-11T08:22:43;101161.25;;;14.14;98.08
9325;BME280;4701;51.566;6.776;2023-05-11T08:25:49;101161.53;;;14.17;98.23
9325;BME280;4701;51.566;6.776;2023-05-11T08:28:52;101166.97;;;14.22;97.94
9325;BME280;4701;51.566;6.776;2023-05-11T08:31:54;101161.22;;;14.24;97.67
9325;BME280;4701;51.566;6.776;2023-05-11T08:34:57;101168.31;;;14.30;97.79
9325;BME280;4701;51.566;6.776;2023-05-11T08:37:59;101168.59;;;14.33;97.56
9325;BME280;4701;51.566;6.776;2023-05-11T08:41:01;101168.88;;;14.37;97.42
9325;BME280;4701;51.566;6.776;2023-05-11T08:44:05;101165.56;;;14.40;97.11
9325;BME280;4701;51.566;6.776;2023-05-11T08:47:07;101163.91;;;14.44;97.01
9325;BME280;4701;51.566;6.776;2023-05-11T08:50:11;101172.38;;;14.48;96.88
9325;BME280;4701;51.566;6.776;2023-05-11T08:53:13;101172.66;;;14.51;96.27
9325;BME280;4701;51.566;6.776;2023-05-11T08:56:15;101170.72;;;14.52;96.31
9325;BME280;4701;51.566;6.776;2023-05-11T08:59:17;101178.69;;;14.53;95.48
9325;BME280;4701;51.566;6.776;2023-05-11T09:02:21;101179.50;;;14.54;95.41
9325;BME280;4701;51.566;6.776;2023-05-11T09:05:26;101175.34;;;14.56;94.93
9325;BME280;4701;51.566;6.776;2023-05-11T09:08:29;101171.50;;;14.57;94.63
9325;BME280;4701;51.566;6.776;2023-05-11T09:11:32;101175.91;;;14.58;94.38
9325;BME280;4701;51.566;6.776;2023-05-11T09:14:34;101175.63;;;14.60;94.08
9325;BME280;4701;51.566;6.776;2023-05-11T09:17:36;101180.84;;;14.61;93.97
9325;BME280;4701;51.566;6.776;2023-05-11T09:20:42;101177.28;;;14.61;93.17
9325;BME280;4701;51.566;6.776;2023-05-11T09:23:44;101174.25;;;14.62;92.73
9325;BME280;4701;51.566;6.776;2023-05-11T09:26:46;101169.28;;;14.64;92.30
9325;BME280;4701;51.566;6.776;2023-05-11T09:29:51;101169.28;;;14.64;92.14
9325;BME280;4701;51.566;6.776;2023-05-11T09:32:54;101167.91;;;14.67;92.52
9325;BME280;4701;51.566;6.776;2023-05-11T09:35:58;101173.09;;;14.68;92.40
9325;BME280;4701;51.566;6.776;2023-05-11T09:39:00;101172.81;;;14.70;92.40
9325;BME280;4701;51.566;6.776;2023-05-11T09:42:20;101168.66;;;14.72;92.64
9325;BME280;4701;51.566;6.776;2023-05-11T09:45:35;101171.13;;;14.74;92.68
9325;BME280;4701;51.566;6.776;2023-05-11T09:48:38;101168.13;;;14.75;92.52
9325;BME280;4701;51.566;6.776;2023-05-11T09:51:41;101175.25;;;14.76;92.89
9325;BME280;4701;51.566;6.776;2023-05-11T09:54:44;101174.97;;;14.78;92.84
9325;BME280;4701;51.566;6.776;2023-05-11T09:57:52;101165.63;;;14.79;92.90
9325;BME280;4701;51.566;6.776;2023-05-11T10:00:55;101173.56;;;14.81;92.78
9325;BME280;4701;51.566;6.776;2023-05-11T10:03:59;101175.19;;;14.82;92.59
9325;BME280;4701;51.566;6.776;2023-05-11T10:07:03;101178.78;;;14.82;92.58
9325;BME280;4701;51.566;6.776;2023-05-11T10:10:07;101175.75;;;14.84;92.69
9325;BME280;4701;51.566;6.776;2023-05-11T10:13:11;101176.56;;;14.84;92.59
9325;BME280;4701;51.566;6.776;2023-05-11T10:16:14;101169.16;;;14.85;92.35
9325;BME280;4701;51.566;6.776;2023-05-11T10:19:17;101172.72;;;14.85;92.38
9325;BME280;4701;51.566;6.776;2023-05-11T10:22:21;101170.81;;;14.86;92.62
9325;BME280;4701;51.566;6.776;2023-05-11T10:25:24;101166.97;;;14.87;92.50
9325;BME280;4701;51.566;6.776;2023-05-11T10:28:26;101168.06;;;14.86;92.81
9325;BME280;4701;51.566;6.776;2023-05-11T10:31:30;101169.69;;;14.87;93.05
9325;BME280;4701;51.566;6.776;2023-05-11T10:34:33;101173.53;;;14.86;92.71
9325;BME280;4701;51.566;6.776;2023-05-11T10:37:36;101181.78;;;14.86;92.84
9325;BME280;4701;51.566;6.776;2023-05-11T10:40:40;101177.09;;;14.86;92.86
9325;BME280;4701;51.566;6.776;2023-05-11T10:50:49;101165.59;;;14.84;92.77
9325;BME280;4701;51.566;6.776;2023-05-11T10:54:08;101173.81;;;14.84;92.90
9325;BME280;4701;51.566;6.776;2023-05-11T11:01:18;101178.22;;;14.85;93.54
9325;BME280;4701;51.566;6.776;2023-05-11T11:04:24;101177.66;;;14.83;93.77
9325;BME280;4701;51.566;6.776;2023-05-11T11:07:26;101174.94;;;14.83;94.49
9325;BME280;4701;51.566;6.776;2023-05-11T11:10:31;101176.84;;;14.83;94.85
9325;BME280;4701;51.566;6.776;2023-05-11T11:13:55;101176.84;;;14.83;94.72
9325;BME280;4701;51.566;6.776;2023-05-11T11:17:22;101170.53;;;14.82;94.87
9325;BME280;4701;51.566;6.776;2023-05-11T11:20:47;101172.19;;;14.83;95.02
9325;BME280;4701;51.566;6.776;2023-05-11T11:23:49;101165.88;;;14.83;95.36
9325;BME280;4701;51.566;6.776;2023-05-11T11:26:52;101169.16;;;14.85;95.19
9325;BME280;4701;51.566;6.776;2023-05-11T11:30:25;101166.97;;;14.87;95.74
9325;BME280;4701;51.566;6.776;2023-05-11T11:33:32;101166.13;;;14.86;95.50
9325;BME280;4701;51.566;6.776;2023-05-11T11:37:00;101165.84;;;14.88;95.75
9325;BME280;4701;51.566;6.776;2023-05-11T11:40:03;101168.28;;;14.89;95.90
9325;BME280;4701;51.566;6.776;2023-05-11T11:43:10;101162.81;;;14.89;95.99
9325;BME280;4701;51.566;6.776;2023-05-11T11:46:24;101171.28;;;14.93;96.13
9325;BME280;4701;51.566;6.776;2023-05-11T11:49:27;101158.13;;;14.95;95.97
9325;BME280;4701;51.566;6.776;2023-05-11T11:52:32;101170.16;;;14.99;95.95
9325;BME280;4701;51.566;6.776;2023-05-11T11:55:47;101173.44;;;15.01;95.78
9325;BME280;4701;51.566;6.776;2023-05-11T11:58:57;101166.84;;;15.02;95.87
9325;BME280;4701;51.566;6.776;2023-05-11T12:02:01;101165.75;;;15.03;95.55
9325;BME280;4701;51.566;6.776;2023-05-11T12:05:09;101159.66;;;15.06;95.60
9325;BME280;4701;51.566;6.776;2023-05-11T12:08:15;101165.69;;;15.08;95.22
9325;BME280;4701;51.566;6.776;2023-05-11T12:11:20;101167.88;;;15.11;95.14
9325;BME280;4701;51.566;6.776;2023-05-11T12:14:24;101161.28;;;15.12;95.06
9325;BME280;4701;51.566;6.776;2023-05-11T12:17:27;101152.44;;;15.15;95.09
9325;BME280;4701;51.566;6.776;2023-05-11T12:20:31;101151.06;;;15.18;94.90
9325;BME280;4701;51.566;6.776;2023-05-11T12:23:33;101152.72;;;15.19;94.82
9325;BME280;4701;51.566;6.776;2023-05-11T12:26:35;101151.31;;;15.21;94.60
9325;BME280;4701;51.566;6.776;2023-05-11T12:29:38;101151.81;;;15.23;94.17
9325;BME280;4701;51.566;6.776;2023-05-11T12:32:40;101146.88;;;15.25;94.13
9325;BME280;4701;51.566;6.776;2023-05-11T12:35:42;101152.09;;;15.27;93.39
9325;BME280;4701;51.566;6.776;2023-05-11T12:38:45;101143.84;;;15.27;93.04
9325;BME280;4701;51.566;6.776;2023-05-11T12:41:49;101136.44;;;15.27;92.98
9325;BME280;4701;51.566;6.776;2023-05-11T12:44:53;101140.00;;;15.28;92.68
9325;BME280;4701;51.566;6.776;2023-05-11T12:47:55;101125.16;;;15.29;92.68
9325;BME280;4701;51.566;6.776;2023-05-11T12:50:58;101125.69;;;15.31;92.38
9325;BME280;4701;51.566;6.776;2023-05-11T12:54:00;101126.22;;;15.33;92.38
9325;BME280;4701;51.566;6.776;2023-05-11T12:57:02;101131.41;;;15.34;92.78
9325;BME280;4701;51.566;6.776;2023-05-11T13:00:08;101114.66;;;15.36;92.39
9325;BME280;4701;51.566;6.776;2023-05-11T13:03:11;101115.19;;;15.38;92.40
9325;BME280;4701;51.566;6.776;2023-05-11T13:06:18;101123.16;;;15.39;92.32
9325;BME280;4701;51.566;6.776;2023-05-11T13:09:21;101124.75;;;15.40;92.10
9325;BME280;4701;51.566;6.776;2023-05-11T13:12:23;101126.94;;;15.43;92.12
9325;BME280;4701;51.566;6.776;2023-05-11T13:15:27;101124.72;;;15.45;91.93
9325;BME280;4701;51.566;6.776;2023-05-11T13:18:30;101124.13;;;15.48;91.59
9325;BME280;4701;51.566;6.776;2023-05-11T13:21:32;101126.59;;;15.50;91.57
9325;BME280;4701;51.566;6.776;2023-05-11T13:24:34;101124.38;;;15.52;91.30
9325;BME280;4701;51.566;6.776;2023-05-11T13:27:36;101121.38;;;15.54;91.45
9325;BME280;4701;51.566;6.776;2023-05-11T13:30:40;101125.16;;;15.58;91.62
9325;BME280;4701;51.566;6.776;2023-05-11T13:33:42;101124.88;;;15.59;91.38
9325;BME280;4701;51.566;6.776;2023-05-11T13:36:44;101122.38;;;15.63;91.46
9325;BME280;4701;51.566;6.776;2023-05-11T13:39:46;101121.28;;;15.64;91.49
9325;BME280;4701;51.566;6.776;2023-05-11T13:42:48;101120.69;;;15.67;91.45
9325;BME280;4701;51.566;6.776;2023-05-11T13:45:52;101119.28;;;15.69;91.23
9325;BME280;4701;51.566;6.776;2023-05-11T13:48:53;101114.84;;;15.73;91.04
9325;BME280;4701;51.566;6.776;2023-05-11T13:51:55;101117.28;;;15.75;90.55
9325;BME280;4701;51.566;6.776;2023-05-11T13:54:57;101112.03;;;15.78;90.29
9325;BME280;4701;51.566;6.776;2023-05-11T13:57:59;101113.69;;;15.79;90.27
9325;BME280;4701;51.566;6.776;2023-05-11T14:01:02;101115.81;;;15.82;89.84
9325;BME280;4701;51.566;6.776;2023-05-11T14:04:04;101123.78;;;15.84;89.16
9325;BME280;4701;51.566;6.776;2023-05-11T14:07:06;101118.00;;;15.85;88.70
9325;BME280;4701;51.566;6.776;2023-05-11T14:10:09;101118.53;;;15.87;88.23
9325;BME280;4701;51.566;6.776;2023-05-11T14:13:11;101121.81;;;15.89;88.16
9325;BME280;4701;51.566;6.776;2023-05-11T14:16:14;101125.88;;;15.92;88.10
9325;BME280;4701;51.566;6.776;2023-05-11T14:19:16;101116.53;;;15.93;88.14
9325;BME280;4701;51.566;6.776;2023-05-11T14:22:18;101117.06;;;15.95;87.92
9325;BME280;4701;51.566;6.776;2023-05-11T14:25:20;101117.06;;;15.95;87.88
9325;BME280;4701;51.566;6.776;2023-05-11T14:28:22;101122.56;;;15.95;87.42
9325;BME280;4701;51.566;6.776;2023-05-11T14:31:25;101123.38;;;15.96;87.24
9325;BME280;4701;51.566;6.776;2023-05-11T14:34:27;101122.56;;;15.95;87.54
9325;BME280;4701;51.566;6.776;2023-05-11T14:37:29;101131.63;;;15.96;87.50
9325;BME280;4701;51.566;6.776;2023-05-11T14:40:31;101131.63;;;15.96;87.45
9325;BME280;4701;51.566;6.776;2023-05-11T14:43:33;101123.38;;;15.96;87.37
9325;BME280;4701;51.566;6.776;2023-05-11T14:46:36;101123.66;;;15.94;87.20
9325;BME280;4701;51.566;6.776;2023-05-11T14:49:38;101121.22;;;15.93;87.30
9325;BME280;4701;51.566;6.776;2023-05-11T14:52:40;101120.09;;;15.94;87.33
9325;BME280;4701;51.566;6.776;2023-05-11T14:55:42;101134.13;;;15.92;87.46
9325;BME280;4701;51.566;6.776;2023-05-11T14:58:44;101125.38;;;15.90;87.24
9325;BME280;4701;51.566;6.776;2023-05-11T15:01:47;101131.69;;;15.91;87.03
9325;BME280;4701;51.566;6.776;2023-05-11T15:04:49;101128.41;;;15.88;86.72
9325;BME280;4701;51.566;6.776;2023-05-11T15:07:52;101131.47;;;15.87;86.71
9325;BME280;4701;51.566;6.776;2023-05-11T15:10:54;101129.00;;;15.85;86.51
9325;BME280;4701;51.566;6.776;2023-05-11T15:13:56;101134.78;;;15.84;86.72
9325;BME280;4701;51.566;6.776;2023-05-11T15:16:59;101139.47;;;15.83;86.86
9325;BME280;4701;51.566;6.776;2023-05-11T15:20:01;101132.63;;;15.81;86.96
9325;BME280;4701;51.566;6.776;2023-05-11T15:23:03;101134.56;;;15.80;87.03
9325;BME280;4701;51.566;6.776;2023-05-11T15:26:08;101127.72;;;15.78;87.19
9325;BME280;4701;51.566;6.776;2023-05-11T15:29:10;101132.38;;;15.77;87.42
9325;BME280;4701;51.566;6.776;2023-05-11T15:32:13;101128.00;;;15.76;87.37
9325;BME280;4701;51.566;6.776;2023-05-11T15:35:16;101136.25;;;15.76;87.54
9325;BME280;4701;51.566;6.776;2023-05-11T15:38:20;101132.13;;;15.74;87.51
9325;BME280;4701;51.566;6.776;2023-05-11T15:41:21;101127.19;;;15.76;87.63
9325;BME280;4701;51.566;6.776;2023-05-11T15:44:24;101129.94;;;15.76;87.76
9325;BME280;4701;51.566;6.776;2023-05-11T15:47:27;101132.97;;;15.74;87.86
9325;BME280;4701;51.566;6.776;2023-05-11T15:50:29;101132.66;;;15.76;87.71
9325;BME280;4701;51.566;6.776;2023-05-11T15:53:31;101136.25;;;15.76;88.25
9325;BME280;4701;51.566;6.776;2023-05-11T15:56:32;101130.47;;;15.78;88.47
9325;BME280;4701;51.566;6.776;2023-05-11T15:59:34;101127.41;;;15.79;88.61
9325;BME280;4701;51.566;6.776;2023-05-11T16:02:38;101121.63;;;15.81;88.98
9325;BME280;4701;51.566;6.776;2023-05-11T16:05:41;101120.81;;;15.80;88.80
9325;BME280;4701;51.566;6.776;2023-05-11T16:08:43;101127.63;;;15.83;88.85
9325;BME280;4701;51.566;6.776;2023-05-11T16:11:45;101125.44;;;15.85;88.90
9325;BME280;4701;51.566;6.776;2023-05-11T16:14:47;101128.19;;;15.85;88.96
9325;BME280;4701;51.566;6.776;2023-05-11T16:17:51;101124.31;;;15.86;88.90
9325;BME280;4701;51.566;6.776;2023-05-11T16:20:53;101124.31;;;15.86;88.79
9325;BME280;4701;51.566;6.776;2023-05-11T16:23:54;101135.03;;;15.87;88.81
9325;BME280;4701;51.566;6.776;2023-05-11T16:26:56;101129.53;;;15.87;88.84
9325;BME280;4701;51.566;6.776;2023-05-11T16:29:58;101133.09;;;15.88;88.90
9325;BME280;4701;51.566;6.776;2023-05-11T16:33:01;101129.25;;;15.89;88.86
9325;BME280;4701;51.566;6.776;2023-05-11T16:36:04;101135.56;;;15.89;89.06
9325;BME280;4701;51.566;6.776;2023-05-11T16:39:06;101132.00;;;15.89;89.10
9325;BME280;4701;51.566;6.776;2023-05-11T16:42:08;101138.31;;;15.89;89.25
9325;BME280;4701;51.566;6.776;2023-05-11T16:45:10;101127.31;;;15.89;89.31
9325;BME280;4701;51.566;6.776;2023-05-11T16:48:13;101133.31;;;15.92;89.40
9325;BME280;4701;51.566;6.776;2023-05-11T16:51:15;101135.25;;;15.91;89.22
9325;BME280;4701;51.566;6.776;2023-05-11T16:54:17;101138.00;;;15.91;89.26
9325;BME280;4701;51.566;6.776;2023-05-11T16:57:20;101140.44;;;15.93;89.55
9325;BME280;4701;51.566;6.776;2023-05-11T17:00:24;101139.63;;;15.92;89.53
9325;BME280;4701;51.566;6.776;2023-05-11T17:03:29;101136.88;;;15.92;89.53
9325;BME280;4701;51.566;6.776;2023-05-11T17:06:32;101135.25;;;15.91;89.39
9325;BME280;4701;51.566;6.776;2023-05-11T17:09:33;101130.88;;;15.90;89.22
9325;BME280;4701;51.566;6.776;2023-05-11T17:12:35;101138.59;;;15.88;88.79
9325;BME280;4701;51.566;6.776;2023-05-11T17:15:37;101134.22;;;15.87;88.57
9325;BME280;4701;51.566;6.776;2023-05-11T17:18:41;101132.28;;;15.87;88.82
9325;BME280;4701;51.566;6.776;2023-05-11T17:21:43;101133.97;;;15.83;88.61
9325;BME280;4701;51.566;6.776;2023-05-11T17:24:51;101138.63;;;15.83;88.48
9325;BME280;4701;51.566;6.776;2023-05-11T17:27:56;101128.78;;;15.82;88.44
9325;BME280;4701;51.566;6.776;2023-05-11T17:31:06;101134.56;;;15.80;88.51
9325;BME280;4701;51.566;6.776;2023-05-11T17:34:09;101141.44;;;15.78;88.46
9325;BME280;4701;51.566;6.776;2023-05-11T17:37:11;101139.81;;;15.77;88.52
9325;BME280;4701;51.566;6.776;2023-05-11T17:40:14;101140.38;;;15.74;88.59
9325;BME280;4701;51.566;6.776;2023-05-11T17:43:16;101138.44;;;15.74;88.72
9325;BME280;4701;51.566;6.776;2023-05-11T17:46:18;101145.38;;;15.72;88.55
9325;BME280;4701;51.566;6.776;2023-05-11T17:49:21;101149.78;;;15.68;88.88
9325;BME280;4701;51.566;6.776;2023-05-11T17:52:23;101150.63;;;15.68;88.82
9325;BME280;4701;51.566;6.776;2023-05-11T17:55:25;101148.97;;;15.67;88.96
9325;BME280;4701;51.566;6.776;2023-05-11T17:58:27;101152.00;;;15.66;89.11
9325;BME280;4701;51.566;6.776;2023-05-11T18:01:29;101145.69;;;15.65;89.19
9325;BME280;4701;51.566;6.776;2023-05-11T18:04:32;101152.31;;;15.64;89.56
9325;BME280;4701;51.566;6.776;2023-05-11T18:07:34;101149.88;;;15.63;89.63
9325;BME280;4701;51.566;6.776;2023-05-11T18:10:36;101153.72;;;15.62;89.67
9325;BME280;4701;51.566;6.776;2023-05-11T18:13:38;101158.38;;;15.61;89.78
9325;BME280;4701;51.566;6.776;2023-05-11T18:16:40;101150.44;;;15.60;90.01
9325;BME280;4701;51.566;6.776;2023-05-11T18:19:44;101152.34;;;15.59;90.15
9325;BME280;4701;51.566;6.776;2023-05-11T18:22:46;101157.31;;;15.57;90.36
9325;BME280;4701;51.566;6.776;2023-05-11T18:25:48;101161.19;;;15.56;90.39
9325;BME280;4701;51.566;6.776;2023-05-11T18:28:49;101162.31;;;15.55;90.38
9325;BME280;4701;51.566;6.776;2023-05-11T18:31:54;101161.47;;;15.55;90.53
9325;BME280;4701;51.566;6.776;2023-05-11T18:34:57;101159.28;;;15.51;90.43
9325;BME280;4701;51.566;6.776;2023-05-11T18:37:59;101161.47;;;15.49;90.44
9325;BME280;4701;51.566;6.776;2023-05-11T18:41:04;101154.34;;;15.48;90.39
9325;BME280;4701;51.566;6.776;2023-05-11T18:44:06;101158.22;;;15.47;90.50
9325;BME280;4701;51.566;6.776;2023-05-11T18:47:08;101156.88;;;15.45;90.74
9325;BME280;4701;51.566;6.776;2023-05-11T18:50:12;101160.72;;;15.44;91.14
9325;BME280;4701;51.566;6.776;2023-05-11T18:53:14;101164.56;;;15.43;91.47
9325;BME280;4701;51.566;6.776;2023-05-11T18:56:16;101162.94;;;15.42;91.54
9325;BME280;4701;51.566;6.776;2023-05-11T18:59:18;101170.34;;;15.41;91.81
9325;BME280;4701;51.566;6.776;2023-05-11T19:02:20;101178.09;;;15.39;91.84
9325;BME280;4701;51.566;6.776;2023-05-11T19:05:23;101176.72;;;15.37;91.92
9325;BME280;4701;51.566;6.776;2023-05-11T19:08:25;101173.44;;;15.35;92.22
9325;BME280;4701;51.566;6.776;2023-05-11T19:11:27;101181.97;;;15.33;92.48
9325;BME280;4701;51.566;6.776;2023-05-11T19:14:29;101187.22;;;15.30;92.40
9325;BME280;4701;51.566;6.776;2023-05-11T19:17:34;101190.25;;;15.28;92.38
9325;BME280;4701;51.566;6.776;2023-05-11T19:20:37;101190.53;;;15.27;92.43
9325;BME280;4701;51.566;6.776;2023-05-11T19:23:39;101185.59;;;15.24;92.23
9325;BME280;4701;51.566;6.776;2023-05-11T19:26:41;101192.19;;;15.23;92.13
9325;BME280;4701;51.566;6.776;2023-05-11T19:29:51;101196.34;;;15.20;92.08
9325;BME280;4701;51.566;6.776;2023-05-11T19:33:16;101195.28;;;15.16;92.37
9325;BME280;4701;51.566;6.776;2023-05-11T19:36:23;101206.25;;;15.16;92.56
9325;BME280;4701;51.566;6.776;2023-05-11T19:39:25;101207.66;;;15.13;92.62
9325;BME280;4701;51.566;6.776;2023-05-11T19:42:27;101206.84;;;15.13;92.96
9325;BME280;4701;51.566;6.776;2023-05-11T19:45:29;101210.97;;;15.10;93.12
9325;BME280;4701;51.566;6.776;2023-05-11T19:48:32;101212.34;;;15.08;93.12
9325;BME280;4701;51.566;6.776;2023-05-11T19:51:35;101201.66;;;15.06;93.26
9325;BME280;4701;51.566;6.776;2023-05-11T19:54:37;101209.06;;;15.06;93.77
9325;BME280;4701;51.566;6.776;2023-05-11T19:57:39;101209.66;;;15.03;93.61
9325;BME280;4701;51.566;6.776;2023-05-11T20:00:41;101209.94;;;15.01;93.56
9325;BME280;4701;51.566;6.776;2023-05-11T20:03:43;101206.66;;;14.99;93.45
9325;BME280;4701;51.566;6.776;2023-05-11T20:06:46;101215.16;;;14.98;93.43
9325;BME280;4701;51.566;6.776;2023-05-11T20:09:48;101217.41;;;14.96;93.75
9325;BME280;4701;51.566;6.776;2023-05-11T20:12:50;101218.50;;;14.95;93.77
9325;BME280;4701;51.566;6.776;2023-05-11T20:15:52;101213.56;;;14.92;93.82
9325;BME280;4701;51.566;6.776;2023-05-11T20:18:54;101212.75;;;14.91;93.61
9325;BME280;4701;51.566;6.776;2023-05-11T20:21:57;101213.03;;;14.90;93.72
9325;BME280;4701;51.566;6.776;2023-05-11T20:24:59;101205.88;;;14.89;93.84
9325;BME280;4701;51.566;6.776;2023-05-11T20:28:01;101212.78;;;14.86;94.04
9325;BME280;4701;51.566;6.776;2023-05-11T20:31:03;101214.72;;;14.86;93.87
9325;BME280;4701;51.566;6.776;2023-05-11T20:34:04;101213.06;;;14.85;94.00
9325;BME280;4701;51.566;6.776;2023-05-11T20:37:08;101205.38;;;14.82;93.72
9325;BME280;4701;51.566;6.776;2023-05-11T20:40:11;101205.38;;;14.82;93.58
9325;BME280;4701;51.566;6.776;2023-05-11T20:43:13;101209.22;;;14.81;94.13
9325;BME280;4701;51.566;6.776;2023-05-11T20:46:15;101209.22;;;14.81;94.10
9325;BME280;4701;51.566;6.776;2023-05-11T20:49:16;101203.22;;;14.79;94.30
9325;BME280;4701;51.566;6.776;2023-05-11T20:52:20;101199.94;;;14.76;94.20
9325;BME280;4701;51.566;6.776;2023-05-11T20:55:22;101202.69;;;14.76;94.15
9325;BME280;4701;51.566;6.776;2023-05-11T20:58:24;101199.69;;;14.73;94.49
